createdAt,value
2022-09-28T00:03:13.371Z,981.15
2022-09-28T00:08:13.201Z,981.19
2022-09-28T00:13:13.127Z,981.11
2022-09-28T00:18:13.070Z,981.11
2022-09-28T00:23:12.999Z,981.03
2022-09-28T00:28:12.937Z,981.04
2022-09-28T00:33:12.863Z,981.05
2022-09-28T00:38:12.806Z,980.99
2022-09-28T00:43:12.733Z,980.94
2022-09-28T00:48:12.675Z,980.88
2022-09-28T00:53:12.602Z,980.88
2022-09-28T00:58:12.551Z,980.87
2022-09-28T01:03:12.471Z,980.86
2022-09-28T01:08:12.415Z,980.76
2022-09-28T01:13:12.339Z,980.71
2022-09-28T01:18:12.282Z,980.61
2022-09-28T01:23:12.213Z,980.58
2022-09-28T01:28:12.149Z,980.37
2022-09-28T01:33:12.078Z,980.35
2022-09-28T01:38:12.020Z,980.35
2022-09-28T01:43:11.949Z,980.29
2022-09-28T01:48:11.891Z,980.18
2022-09-28T01:53:11.814Z,980.01
2022-09-28T01:58:11.762Z,979.99
2022-09-28T02:03:11.683Z,980.01
2022-09-28T02:08:11.628Z,979.90
2022-09-28T02:13:11.550Z,979.87
2022-09-28T02:18:11.492Z,979.87
2022-09-28T02:23:11.422Z,979.97
2022-09-28T02:28:11.363Z,979.94
2022-09-28T02:33:11.290Z,979.88
2022-09-28T02:38:11.232Z,979.83
2022-09-28T02:43:11.157Z,979.84
2022-09-28T02:48:11.100Z,979.83
2022-09-28T02:53:11.024Z,979.78
2022-09-28T02:58:10.969Z,979.69
2022-09-28T03:03:10.896Z,979.61
2022-09-28T03:08:10.839Z,979.59
2022-09-28T03:13:10.755Z,979.57
2022-09-28T03:18:10.702Z,979.54
2022-09-28T03:23:24.325Z,979.53
2022-09-28T03:28:11.592Z,979.46
2022-09-28T03:33:10.497Z,979.38
2022-09-28T03:38:10.438Z,979.33
2022-09-28T03:43:10.364Z,979.26
2022-09-28T03:48:10.307Z,979.14
2022-09-28T03:53:10.238Z,979.17
2022-09-28T03:58:10.178Z,979.11
2022-09-28T04:03:10.107Z,979.00
2022-09-28T04:08:10.047Z,978.99
2022-09-28T04:13:09.975Z,978.87
2022-09-28T04:18:09.925Z,978.81
2022-09-28T04:23:09.841Z,978.76
2022-09-28T04:28:09.794Z,978.81
2022-09-28T04:33:09.710Z,978.67
2022-09-28T04:38:09.661Z,978.57
2022-09-28T04:43:09.579Z,978.54
2022-09-28T04:48:09.581Z,978.46
2022-09-28T04:53:09.449Z,978.43
2022-09-28T04:58:09.391Z,978.38
2022-09-28T05:03:09.318Z,978.36
2022-09-28T05:08:09.262Z,978.28
2022-09-28T05:13:09.187Z,978.21
2022-09-28T05:18:09.130Z,978.19
2022-09-28T05:23:09.057Z,978.19
2022-09-28T05:28:08.999Z,978.19
2022-09-28T05:33:08.928Z,978.10
2022-09-28T05:38:08.878Z,978.09
2022-09-28T05:43:08.795Z,978.06
2022-09-28T05:48:08.746Z,978.03
2022-09-28T05:53:08.666Z,978.05
2022-09-28T05:58:08.617Z,978.01
2022-09-28T06:03:09.476Z,978.02
2022-09-28T06:08:08.602Z,978.04
2022-09-28T06:13:08.404Z,977.97
2022-09-28T06:18:08.348Z,977.99
2022-09-28T06:23:08.282Z,978.03
2022-09-28T06:28:08.214Z,978.04
2022-09-28T06:33:08.151Z,978.00
2022-09-28T06:38:08.098Z,978.01
2022-09-28T06:43:08.024Z,977.96
2022-09-28T06:48:07.960Z,978.03
2022-09-28T06:53:07.889Z,978.02
2022-09-28T06:58:07.824Z,978.03
2022-09-28T07:03:07.748Z,978.03
2022-09-28T07:08:07.689Z,978.03
2022-09-28T07:13:13.099Z,977.97
2022-09-28T07:18:07.715Z,977.96
2022-09-28T07:23:17.508Z,977.97
2022-09-28T07:28:08.452Z,977.93
2022-09-28T07:33:07.355Z,977.94
2022-09-28T07:38:07.304Z,977.88
2022-09-28T07:43:07.233Z,977.88
2022-09-28T07:48:07.199Z,977.95
2022-09-28T07:53:07.101Z,977.97
2022-09-28T07:58:07.090Z,977.95
2022-09-28T08:03:06.968Z,977.94
2022-09-28T08:08:06.902Z,977.90
2022-09-28T08:13:08.694Z,977.96
2022-09-28T08:18:06.772Z,977.94
2022-09-28T08:23:06.711Z,977.93
2022-09-28T08:28:06.641Z,977.98
2022-09-28T08:33:06.569Z,978.07
2022-09-28T08:38:06.515Z,978.14
2022-09-28T08:43:06.436Z,978.15
2022-09-28T08:48:06.379Z,978.19
2022-09-28T08:53:06.311Z,978.20
2022-09-28T08:58:06.249Z,978.22
2022-09-28T09:03:06.186Z,978.29
2022-09-28T09:08:06.119Z,978.29
2022-09-28T09:13:06.097Z,978.34
2022-09-28T09:18:05.989Z,978.37
2022-09-28T09:23:05.925Z,978.36
2022-09-28T09:28:05.862Z,978.42
2022-09-28T09:33:05.795Z,978.46
2022-09-28T09:38:05.726Z,978.41
2022-09-28T09:43:05.654Z,978.41
2022-09-28T09:48:05.595Z,978.49
2022-09-28T09:53:05.525Z,978.45
2022-09-28T09:58:05.464Z,978.52
2022-09-28T10:03:05.392Z,978.56
2022-09-28T10:08:05.334Z,978.61
2022-09-28T10:13:05.260Z,978.59
2022-09-28T10:18:05.203Z,978.66
2022-09-28T10:23:05.139Z,978.69
2022-09-28T10:28:05.071Z,978.65
2022-09-28T10:33:05.008Z,978.68
2022-09-28T10:38:04.940Z,978.70
2022-09-28T10:43:04.876Z,978.69
2022-09-28T10:48:04.812Z,978.80
2022-09-28T10:53:04.746Z,978.86
2022-09-28T10:58:04.681Z,978.93
2022-09-28T11:03:04.606Z,978.95
2022-09-28T11:08:04.548Z,978.97
2022-09-28T11:13:04.475Z,978.95
2022-09-28T11:18:04.416Z,978.98
2022-09-28T11:23:04.345Z,979.02
2022-09-28T11:28:04.536Z,979.01
2022-09-28T11:33:04.224Z,979.01
2022-09-28T11:38:04.155Z,979.12
2022-09-28T11:43:07.214Z,979.19
2022-09-28T11:48:04.022Z,979.25
2022-09-28T11:53:03.948Z,979.32
2022-09-28T11:58:03.893Z,979.34
2022-09-28T12:03:03.991Z,979.39
2022-09-28T12:08:03.771Z,979.31
2022-09-28T12:13:03.688Z,979.33
2022-09-28T12:18:03.768Z,979.27
2022-09-28T12:23:03.559Z,979.26
2022-09-28T12:28:03.511Z,979.32
2022-09-28T12:33:03.427Z,979.34
2022-09-28T12:38:03.402Z,979.36
2022-09-28T12:43:03.300Z,979.50
2022-09-28T12:48:03.245Z,979.53
2022-09-28T12:53:03.394Z,979.59
2022-09-28T12:58:03.103Z,979.60
2022-09-28T13:03:03.029Z,979.64
2022-09-28T13:08:02.971Z,979.71
2022-09-28T13:13:02.897Z,979.73
2022-09-28T13:18:02.860Z,979.74
2022-09-28T13:23:02.782Z,979.76
2022-09-28T13:28:02.709Z,979.77
2022-09-28T13:33:02.639Z,979.81
2022-09-28T13:38:02.585Z,979.83
2022-09-28T13:43:02.502Z,979.84
2022-09-28T13:48:02.453Z,979.87
2022-09-28T13:53:02.369Z,979.93
2022-09-28T13:58:02.324Z,979.93
2022-09-28T14:03:02.323Z,980.01
2022-09-28T14:08:02.188Z,979.99
2022-09-28T14:13:04.181Z,980.05
2022-09-28T14:18:02.059Z,980.10
2022-09-28T14:23:01.970Z,980.05
2022-09-28T14:28:01.923Z,980.07
2022-09-28T14:33:01.836Z,980.10
2022-09-28T14:38:01.792Z,980.09
2022-09-28T14:43:01.707Z,980.19
2022-09-28T14:48:01.657Z,980.27
2022-09-28T14:53:01.572Z,980.34
2022-09-28T14:58:01.556Z,980.36
2022-09-28T15:03:01.439Z,980.30
2022-09-28T15:08:01.385Z,980.37
2022-09-28T15:13:01.344Z,980.48
2022-09-28T15:18:01.257Z,980.47
2022-09-28T15:23:01.175Z,980.47
2022-09-28T15:28:01.119Z,980.50
2022-09-28T15:33:01.046Z,980.54
2022-09-28T15:38:00.998Z,980.58
2022-09-28T15:43:00.914Z,980.62
2022-09-28T15:48:00.867Z,980.69
2022-09-28T15:53:00.787Z,980.72
2022-09-28T15:58:00.738Z,980.82
2022-09-28T16:03:00.743Z,980.83
2022-09-28T16:08:00.609Z,980.81
2022-09-28T16:13:00.522Z,980.79
2022-09-28T16:18:00.465Z,980.88
2022-09-28T16:23:00.391Z,980.90
2022-09-28T16:28:00.334Z,980.99
2022-09-28T16:33:00.267Z,981.02
2022-09-28T16:38:00.204Z,981.07
2022-09-28T16:43:00.140Z,981.14
2022-09-28T16:48:00.081Z,981.26
2022-09-28T16:53:00.211Z,981.30
2022-09-28T16:57:59.940Z,981.36
2022-09-28T17:02:59.945Z,981.39
2022-09-28T17:07:59.808Z,981.41
2022-09-28T17:12:59.740Z,981.45
2022-09-28T17:17:59.677Z,981.42
2022-09-28T17:22:59.602Z,981.44
2022-09-28T17:27:59.544Z,981.56
2022-09-28T17:32:59.470Z,981.64
2022-09-28T17:37:59.416Z,981.69
2022-09-28T17:42:59.348Z,981.75
2022-09-28T17:47:59.280Z,981.76
2022-09-28T17:52:59.222Z,981.83
2022-09-28T17:57:59.149Z,981.88
2022-09-28T18:02:59.165Z,981.90
2022-09-28T18:07:59.021Z,981.94
2022-09-28T18:12:58.961Z,982.05
2022-09-28T18:17:59.141Z,982.11
2022-09-28T18:22:58.818Z,982.10
2022-09-28T18:27:58.760Z,982.12
2022-09-28T18:32:58.689Z,982.19
2022-09-28T18:37:58.633Z,982.29
2022-09-28T18:42:58.557Z,982.29
2022-09-28T18:47:58.505Z,982.33
2022-09-28T18:52:58.426Z,982.40
2022-09-28T18:57:58.372Z,982.45
2022-09-28T19:02:58.449Z,982.46
2022-09-28T19:07:58.240Z,982.51
2022-09-28T19:12:58.176Z,982.48
2022-09-28T19:17:58.109Z,982.51
2022-09-28T19:22:58.047Z,982.50
2022-09-28T19:27:57.980Z,982.50
2022-09-28T19:32:57.918Z,982.50
2022-09-28T19:37:57.843Z,982.53
2022-09-28T19:42:57.795Z,982.64
2022-09-28T19:47:59.475Z,982.70
2022-09-28T19:52:57.661Z,982.67
2022-09-28T19:57:57.591Z,982.73
2022-09-28T20:02:57.577Z,982.71
2022-09-28T20:07:57.526Z,982.77
2022-09-28T20:12:57.399Z,982.83
2022-09-28T20:17:57.316Z,982.82
2022-09-28T20:22:57.256Z,982.84
2022-09-28T20:27:57.184Z,982.89
2022-09-28T20:32:57.126Z,982.90
2022-09-28T20:37:57.053Z,983.01
2022-09-28T20:42:56.996Z,982.98
2022-09-28T20:47:56.922Z,983.07
2022-09-28T20:52:56.864Z,983.07
2022-09-28T20:57:56.799Z,983.13
2022-09-28T21:02:56.820Z,983.16
2022-09-28T21:07:56.660Z,983.17
2022-09-28T21:12:56.610Z,983.19
2022-09-28T21:17:56.529Z,983.20
2022-09-28T21:22:56.490Z,983.22
2022-09-28T21:27:56.399Z,983.31
2022-09-28T21:32:56.349Z,983.39
2022-09-28T21:37:56.269Z,983.46
2022-09-28T21:42:56.210Z,983.50
2022-09-28T21:47:56.138Z,983.53
2022-09-28T21:52:56.081Z,983.54
2022-09-28T21:57:56.013Z,983.56
2022-09-28T22:02:56.031Z,983.59
2022-09-28T22:07:55.882Z,983.57
2022-09-28T22:12:55.841Z,983.70
2022-09-28T22:17:55.748Z,983.71
2022-09-28T22:22:55.692Z,983.75
2022-09-28T22:27:55.615Z,983.73
2022-09-28T22:32:55.565Z,983.73
2022-09-28T22:37:55.484Z,983.68
2022-09-28T22:42:55.427Z,983.68
2022-09-28T22:47:55.354Z,983.60
2022-09-28T22:52:55.296Z,983.61
2022-09-28T22:57:55.236Z,983.67
2022-09-28T23:02:55.291Z,983.71
2022-09-28T23:07:55.103Z,983.64
2022-09-28T23:12:55.034Z,983.65
2022-09-28T23:17:54.971Z,983.62
2022-09-28T23:22:54.904Z,983.67
2022-09-28T23:27:54.840Z,983.64
2022-09-28T23:32:54.773Z,983.60
2022-09-28T23:37:54.703Z,983.64
2022-09-28T23:42:54.642Z,983.67
2022-09-28T23:47:54.572Z,983.71
2022-09-28T23:52:54.511Z,983.68
2022-09-28T23:57:54.439Z,983.67
